Time;durP1;ratioP1;P1;durP2;ratioP2;P2;SDS_P1;SDS_P2;PMS_P1;PMS_P2;Temp;Humidity;BMP_temperature;BMP_pressure;BME280_temperature;BME280_humidity;BME280_pressure;Samples;Min_cycle;Max_cycle;Signal;HPM_P1;HPM_P2
2021/11/29 07:17:37;;;;;;;4.35;2.15;;;;;;;5.91;89.81;96949.91;1871203;74;22370;-83
2021/11/29 07:20:07;;;;;;;5.67;2.65;;;;;;;5.90;89.58;96959.83;1846309;75;21106;-83
2021/11/29 07:22:35;;;;;;;2.58;1.52;;;;;;;5.94;89.80;96959.63;1768735;77;21624;-82
2021/11/29 07:25:03;;;;;;;2.58;1.50;;;;;;;6.03;89.71;96976.52;1734921;81;21605;-81
2021/11/29 07:27:33;;;;;;;3.92;1.80;;;;;;;6.13;89.69;96980.40;1736219;81;21002;-82
2021/11/29 07:30:02;;;;;;;7.78;3.45;;;;;;;6.24;89.83;96979.11;1717239;80;21019;-85
2021/11/29 07:32:29;;;;;;;6.05;2.27;;;;;;;6.32;89.88;96972.72;1736942;81;21208;-82
2021/11/29 07:34:57;;;;;;;35.48;12.55;;;;;;;6.43;89.44;96985.19;1733953;82;21385;-83
2021/11/29 07:37:23;;;;;;;7.70;2.35;;;;;;;6.59;90.65;96968.59;1695505;83;21469;-82
2021/11/29 07:39:52;;;;;;;4.62;2.17;;;;;;;6.77;90.55;96986.33;1726765;81;21031;-86
2021/11/29 07:42:19;;;;;;;2.62;1.80;;;;;;;6.86;89.82;96977.33;1727228;80;20995;-82
2021/11/29 07:44:46;;;;;;;6.60;2.25;;;;;;;6.97;89.46;96986.28;1735045;81;21014;-82
2021/11/29 07:47:13;;;;;;;4.80;2.02;;;;;;;7.11;89.04;96990.00;1720731;82;20964;-84
2021/11/29 07:49:39;;;;;;;3.40;1.90;;;;;;;7.24;88.73;96994.15;1738435;80;20991;-84
2021/11/29 07:52:08;;;;;;;3.90;2.10;;;;;;;7.37;89.29;96980.60;1729420;80;20998;-83
2021/11/29 07:54:35;;;;;;;2.10;1.35;;;;;;;7.47;88.64;96979.73;1736316;80;20968;-85
2021/11/29 07:57:02;;;;;;;2.60;1.40;;;;;;;7.60;87.02;96985.18;1737915;81;21058;-85
2021/11/29 07:59:29;;;;;;;3.80;1.42;;;;;;;7.69;85.82;96986.02;1702132;81;21175;-90
2021/11/29 08:01:58;;;;;;;2.90;1.77;;;;;;;7.78;85.62;96978.30;1707841;83;21034;-90
2021/11/29 08:04:23;;;;;;;3.50;1.60;;;;;;;7.83;85.18;96973.73;1712309;83;20999;-85
2021/11/29 08:06:51;;;;;;;3.75;2.10;;;;;;;7.88;85.83;96964.47;1745393;82;21074;-84
2021/11/29 08:09:17;;;;;;;4.17;1.90;;;;;;;7.88;85.01;96964.47;1722431;82;21006;-85
2021/11/29 08:11:44;;;;;;;2.40;1.27;;;;;;;7.92;85.52;96968.13;1738843;81;21010;-81
2021/11/29 08:14:10;;;;;;;2.98;1.50;;;;;;;7.94;84.96;96981.82;1719984;82;21049;-84
2021/11/29 08:16:37;;;;;;;1.95;1.25;;;;;;;7.94;84.39;96977.11;1720872;81;21047;-85
2021/11/29 08:19:04;;;;;;;2.50;1.37;;;;;;;7.94;84.18;96980.99;1724439;82;21126;-85
2021/11/29 08:21:30;;;;;;;1.75;1.12;;;;;;;7.99;84.59;96968.65;1721616;82;21107;-90
2021/11/29 08:23:56;;;;;;;2.25;1.50;;;;;;;8.01;84.55;96968.12;1718415;83;21037;-87
2021/11/29 08:26:23;;;;;;;5.55;2.42;;;;;;;7.96;83.25;96970.11;1726447;83;21075;-95
2021/11/29 08:28:50;;;;;;;2.70;1.62;;;;;;;8.01;84.26;96974.59;1725586;82;20992;-95
2021/11/29 08:31:16;;;;;;;3.02;1.70;;;;;;;7.97;83.91;96980.83;1725447;83;21064;-91
2021/11/29 08:33:43;;;;;;;2.75;1.55;;;;;;;8.03;84.49;96990.05;1709555;82;21045;-87
2021/11/29 08:36:09;;;;;;;2.92;1.37;;;;;;;7.99;82.98;96990.64;1724310;82;21081;-80
2021/11/29 08:38:36;;;;;;;5.10;1.70;;;;;;;7.99;82.69;96966.06;1719587;83;21008;-84
2021/11/29 08:41:03;;;;;;;2.62;1.55;;;;;;;8.01;82.52;96954.35;1724043;83;21044;-83
2021/11/29 08:43:31;;;;;;;2.80;1.15;;;;;;;8.00;81.53;96957.41;1722348;83;20969;-81
2021/11/29 08:45:58;;;;;;;2.60;1.60;;;;;;;8.07;82.66;96945.82;1722708;82;21519;-81
2021/11/29 08:48:25;;;;;;;4.35;1.52;;;;;;;8.07;82.44;96948.41;1728692;82;20967;-83
2021/11/29 08:50:55;;;;;;;2.92;1.50;;;;;;;8.12;82.29;96945.14;1728095;83;21036;-82
2021/11/29 08:53:25;;;;;;;2.12;1.30;;;;;;;8.17;81.96;96950.09;1728487;83;21020;-84
2021/11/29 08:55:54;;;;;;;2.15;1.25;;;;;;;8.21;81.52;96949.48;1721737;83;21029;-83
2021/11/29 08:58:21;;;;;;;1.95;1.30;;;;;;;8.28;82.26;96954.75;1697628;83;21077;-89
2021/11/29 09:00:52;;;;;;;1.82;1.20;;;;;;;8.39;83.09;96944.66;1710196;83;21058;-83
2021/11/29 09:03:19;;;;;;;1.60;1.20;;;;;;;8.42;81.89;96948.44;1711092;83;21013;-83
2021/11/29 09:05:48;;;;;;;4.33;1.50;;;;;;;8.51;81.01;96954.42;1697980;83;21057;-83
2021/11/29 09:08:15;;;;;;;9.33;2.65;;;;;;;8.59;81.22;96963.57;1697328;84;21016;-85
2021/11/29 09:10:44;;;;;;;18.55;6.28;;;;;;;8.67;79.92;96956.24;1686811;83;21046;-83
2021/11/29 09:13:10;;;;;;;8.68;3.00;;;;;;;8.76;79.73;96953.19;1707586;83;20963;-82
2021/11/29 09:15:38;;;;;;;5.20;1.90;;;;;;;8.81;79.44;96936.09;1700809;83;21025;-80
2021/11/29 09:18:05;;;;;;;4.78;2.30;;;;;;;8.80;79.11;96926.20;1701014;82;21067;-91
2021/11/29 09:20:32;;;;;;;2.65;1.60;;;;;;;8.88;79.33;96914.97;1700533;82;21017;-82
2021/11/29 09:22:59;;;;;;;4.80;2.08;;;;;;;8.85;79.47;96924.19;1696457;84;21399;-82
2021/11/29 09:25:26;;;;;;;2.25;1.22;;;;;;;8.86;78.68;96938.83;1704518;80;20957;-86
2021/11/29 09:27:53;;;;;;;3.55;1.55;;;;;;;8.93;79.39;96966.11;1708798;80;20955;-83
2021/11/29 09:30:20;;;;;;;8.90;3.35;;;;;;;9.02;78.82;96980.32;1694125;80;21045;-83
2021/11/29 09:32:48;;;;;;;4.58;2.42;;;;;;;9.11;78.48;96988.06;1705718;81;21043;-81
2021/11/29 09:35:18;;;;;;;10.82;3.02;;;;;;;9.21;79.05;96984.09;1674872;84;20990;-81
2021/11/29 09:37:45;;;;;;;5.90;2.75;;;;;;;9.30;79.68;96980.16;1716707;80;21164;-87
2021/11/29 09:40:19;;;;;;;4.97;2.25;;;;;;;9.34;79.48;96981.66;1747718;80;21051;-87
2021/11/29 09:42:46;;;;;;;3.30;1.85;;;;;;;9.16;76.43;96967.93;1748847;80;20956;-83
2021/11/29 09:45:15;;;;;;;3.80;1.95;;;;;;;9.10;77.57;96961.31;1776845;79;21000;-85
2021/11/29 09:47:43;;;;;;;9.58;2.20;;;;;;;8.96;77.52;96947.78;1767975;79;21030;-83
2021/11/29 09:50:11;;;;;;;11.18;2.47;;;;;;;8.98;77.61;96948.17;1768836;80;21256;-84
2021/11/29 09:52:38;;;;;;;5.75;2.15;;;;;;;8.95;77.45;96945.27;1769479;80;20971;-84
2021/11/29 09:55:08;;;;;;;5.70;2.27;;;;;;;8.89;77.15;96953.37;1782220;78;20961;-85
2021/11/29 09:57:39;;;;;;;6.47;1.95;;;;;;;8.86;77.69;96945.31;1762835;79;20979;-89
2021/11/29 10:00:11;;;;;;;5.95;2.00;;;;;;;8.85;77.69;96951.39;1688568;83;21118;-87
2021/11/29 10:02:37;;;;;;;4.35;1.65;;;;;;;8.78;77.76;96957.83;1699299;83;20980;-83
2021/11/29 10:05:04;;;;;;;8.88;2.02;;;;;;;8.81;77.84;96971.08;1748517;81;21028;-85
2021/11/29 10:07:36;;;;;;;5.28;2.17;;;;;;;8.83;78.24;96960.17;1724257;82;21147;-86
2021/11/29 10:10:30;;;;;;;3.98;2.15;;;;;;;8.80;77.72;96959.88;1724051;82;21077;-85
2021/11/29 10:13:07;;;;;;;4.78;2.02;;;;;;;8.79;77.76;96959.48;1752270;81;21012;-83
2021/11/29 10:15:36;;;;;;;4.72;2.37;;;;;;;8.74;77.53;96957.61;1704205;81;21010;-82
2021/11/29 10:18:23;;;;;;;6.28;2.58;;;;;;;8.74;77.91;96964.09;1743536;81;21063;-84
2021/11/29 10:21:07;;;;;;;5.30;2.55;;;;;;;8.71;77.93;96966.39;1718112;82;21071;-91
2021/11/29 10:23:38;;;;;;;9.38;2.55;;;;;;;8.69;77.43;96965.59;1744099;79;21093;-89
2021/11/29 10:26:31;;;;;;;8.48;2.70;;;;;;;8.64;77.37;96974.55;1746912;81;21026;-84
2021/11/29 10:29:02;;;;;;;4.58;2.08;;;;;;;8.68;77.77;96974.77;1731867;81;20957;-80
2021/11/29 10:31:46;;;;;;;3.12;2.00;;;;;;;8.68;77.61;96979.95;1730117;81;21056;-80
2021/11/29 10:34:27;;;;;;;6.05;2.27;;;;;;;8.75;78.46;96972.22;1708030;83;20986;-83
2021/11/29 10:36:58;;;;;;;4.37;1.65;;;;;;;8.79;78.42;96969.02;1779863;79;20971;-85
2021/11/29 10:39:36;;;;;;;8.30;2.30;;;;;;;8.81;74.60;96971.08;1785893;79;21663;-82
2021/11/29 10:42:08;;;;;;;6.80;2.40;;;;;;;8.91;76.80;96974.86;1784657;79;21047;-85
2021/11/29 10:44:40;;;;;;;6.28;2.12;;;;;;;8.95;75.64;96977.23;1785203;79;21036;-87
2021/11/29 10:47:11;;;;;;;5.97;1.62;;;;;;;9.01;76.00;96985.58;1787542;79;21014;-87
2021/11/29 10:49:45;;;;;;;3.37;1.80;;;;;;;9.05;76.54;96991.84;1785902;79;21027;-87
2021/11/29 10:52:19;;;;;;;6.50;2.25;;;;;;;9.06;76.51;96986.19;1747462;79;21013;-87
2021/11/29 10:54:46;;;;;;;4.12;1.87;;;;;;;9.09;75.52;96983.42;1750027;81;21004;-80
2021/11/29 10:57:17;;;;;;;5.20;2.20;;;;;;;9.12;75.05;96976.79;1750632;81;21114;-80
2021/11/29 10:59:47;;;;;;;5.12;2.20;;;;;;;9.08;74.64;96985.18;1741455;81;21024;-81
2021/11/29 11:02:17;;;;;;;12.37;3.30;;;;;;;9.10;75.86;96982.05;1748814;81;21063;-80
2021/11/29 11:04:48;;;;;;;9.73;3.33;;;;;;;9.02;75.14;96980.79;1752224;81;21079;-83
2021/11/29 11:07:25;;;;;;;6.20;2.77;;;;;;;9.01;75.50;96983.81;1750661;80;20984;-81
2021/11/29 11:09:57;;;;;;;7.28;3.12;;;;;;;8.99;74.12;97001.20;1747138;80;21064;-79
2021/11/29 11:12:30;;;;;;;7.20;3.77;;;;;;;9.00;75.36;96995.12;1749306;81;20977;-82
2021/11/29 11:15:07;;;;;;;4.20;1.92;;;;;;;8.96;75.14;97003.50;1750399;80;21059;-81
2021/11/29 11:17:33;;;;;;;2.33;1.42;;;;;;;8.96;76.26;97006.56;1744127;81;21007;-81
2021/11/29 11:20:07;;;;;;;3.00;1.00;;;;;;;8.93;75.27;97002.82;1720189;83;21034;-79
2021/11/29 11:22:38;;;;;;;7.75;2.30;;;;;;;8.99;76.78;97007.68;1747860;81;21032;-80
2021/11/29 11:25:28;;;;;;;8.43;3.05;;;;;;;9.06;76.32;96999.15;1737130;81;21004;-81
2021/11/29 11:27:59;;;;;;;13.70;4.97;;;;;;;9.10;75.79;96991.59;1753479;81;21528;-81
2021/11/29 11:30:29;;;;;;;10.13;3.17;;;;;;;9.31;76.65;96996.08;1746385;81;21560;-82
2021/11/29 11:33:02;;;;;;;4.50;2.15;;;;;;;9.46;75.78;97002.21;1755150;81;20996;-84
2021/11/29 11:35:32;;;;;;;6.00;2.02;;;;;;;9.58;71.50;97007.20;1744915;81;21012;-82
2021/11/29 11:38:04;;;;;;;1.85;1.15;;;;;;;9.71;72.35;96998.66;1744447;81;21268;-82
2021/11/29 11:40:35;;;;;;;2.37;1.50;;;;;;;9.83;71.43;97002.77;1747630;81;21032;-82
2021/11/29 11:43:06;;;;;;;11.28;2.25;;;;;;;10.02;72.22;97016.41;1747733;81;21014;-82
2021/11/29 11:45:36;;;;;;;5.10;2.95;;;;;;;10.23;72.95;97005.75;1750199;81;21027;-82
2021/11/29 11:48:07;;;;;;;4.95;2.83;;;;;;;10.45;72.87;96997.13;1753267;81;21518;-83
2021/11/29 11:50:38;;;;;;;4.75;2.15;;;;;;;10.68;67.44;97004.02;1743108;81;20986;-82
2021/11/29 11:53:07;;;;;;;5.62;3.30;;;;;;;11.01;63.82;97013.36;1754954;81;21062;-83
2021/11/29 11:55:46;;;;;;;5.58;3.05;;;;;;;11.07;61.77;97011.69;1728809;82;21021;-84
2021/11/29 11:58:16;;;;;;;5.42;2.52;;;;;;;10.88;61.25;97018.00;1751059;81;21173;-86
2021/11/29 12:00:51;;;;;;;6.50;2.37;;;;;;;10.60;59.73;97016.64;1743636;80;21024;-84
2021/11/29 12:03:28;;;;;;;4.15;2.10;;;;;;;10.53;64.57;97025.26;1755889;81;21035;-84
2021/11/29 12:06:01;;;;;;;4.42;2.55;;;;;;;10.31;60.32;97031.68;1748551;80;21120;-82
2021/11/29 12:08:40;;;;;;;;;;;;;;;10.44;61.45;97028.37;1752089;81;20984;-84
2021/11/29 12:11:31;;;;;;;3.42;1.70;;;;;;;10.62;63.48;97036.40;1754115;80;20143;-80
2021/11/29 12:14:19;;;;;;;2.98;1.70;;;;;;;10.67;64.38;97037.45;1749175;80;20977;-84
2021/11/29 12:16:59;;;;;;;4.42;1.82;;;;;;;10.54;64.37;97045.97;1754746;80;21000;-81
2021/11/29 12:19:35;;;;;;;4.35;1.80;;;;;;;10.51;65.75;97040.93;1749428;80;21003;-82
2021/11/29 12:22:07;;;;;;;3.10;1.72;;;;;;;10.30;64.78;97040.85;1760756;81;21000;-81
2021/11/29 12:24:42;;;;;;;3.92;2.15;;;;;;;10.51;65.74;97041.41;1750488;81;20985;-81
2021/11/29 12:27:12;;;;;;;5.15;1.95;;;;;;;10.63;64.63;97055.45;1745930;81;21079;-80
2021/11/29 12:29:47;;;;;;;9.30;3.80;;;;;;;10.47;64.26;97060.22;1743693;81;21024;-80
2021/11/29 12:32:17;;;;;;;9.68;3.80;;;;;;;10.27;64.45;97054.83;1746703;81;21040;-82
2021/11/29 12:34:50;;;;;;;14.90;4.35;;;;;;;10.00;62.44;97073.23;1730101;81;21064;-82
2021/11/29 12:37:36;;;;;;;12.47;5.53;;;;;;;9.81;64.08;97077.28;1753678;81;21327;-82
2021/11/29 12:40:16;;;;;;;10.43;4.87;;;;;;;9.61;64.44;97075.77;1753105;81;21009;-82
2021/11/29 12:42:48;;;;;;;8.68;3.70;;;;;;;9.36;63.38;97080.49;1750306;80;21036;-85
2021/11/29 12:45:20;;;;;;;10.68;3.15;;;;;;;9.29;63.75;97082.19;1748624;81;21036;-82
2021/11/29 12:48:01;;;;;;;10.43;2.55;;;;;;;9.26;62.45;97090.14;1747735;81;21023;-82
2021/11/29 12:50:39;;;;;;;6.25;2.30;;;;;;;9.35;63.83;97100.88;1749003;81;21506;-83
2021/11/29 12:53:13;;;;;;;6.12;2.17;;;;;;;9.36;63.08;97114.67;1752985;80;21073;-85
2021/11/29 12:55:43;;;;;;;3.87;1.95;;;;;;;9.40;63.47;97111.47;1708287;83;20994;-80
2021/11/29 12:58:17;;;;;;;3.20;1.70;;;;;;;9.34;62.88;97112.63;1748245;81;20986;-84
2021/11/29 13:00:58;;;;;;;4.47;1.60;;;;;;;9.13;59.82;97115.41;1752928;81;20976;-85
2021/11/29 13:03:31;;;;;;;3.87;1.40;;;;;;;9.01;59.83;97113.41;1752610;80;21040;-84
2021/11/29 13:06:06;;;;;;;3.83;1.60;;;;;;;8.96;61.50;97117.54;1754324;80;21039;-84
2021/11/29 13:08:48;;;;;;;3.33;1.52;;;;;;;8.92;62.56;97121.20;1757444;79;21969;-84
2021/11/29 13:11:32;;;;;;;8.78;2.37;;;;;;;8.87;61.53;97134.86;1753519;79;20964;-83
2021/11/29 13:14:02;;;;;;;4.25;2.08;;;;;;;8.81;61.41;97149.39;1749569;80;21016;-80
2021/11/29 13:16:40;;;;;;;5.65;2.25;;;;;;;8.66;59.56;97147.56;1758044;79;21492;-91
2021/11/29 13:19:17;;;;;;;6.50;2.35;;;;;;;8.59;59.93;97150.89;1755232;79;21012;-80
2021/11/29 13:21:55;;;;;;;6.42;2.55;;;;;;;8.55;60.78;97155.84;1755955;80;21016;-82
2021/11/29 13:24:35;;;;;;;5.87;2.17;;;;;;;8.48;60.63;97148.83;1736977;80;21011;-83
2021/11/29 13:27:22;;;;;;;8.53;3.50;;;;;;;8.39;61.51;97145.34;1736434;80;21108;-83
2021/11/29 13:29:57;;;;;;;9.58;4.08;;;;;;;8.30;60.98;97153.56;1755335;79;21090;-83
2021/11/29 13:32:39;;;;;;;11.75;3.72;;;;;;;8.23;61.10;97156.03;1713689;83;21845;-84
2021/11/29 13:35:11;;;;;;;23.57;6.42;;;;;;;8.14;61.64;97159.44;1747674;81;21008;-85
2021/11/29 13:37:45;;;;;;;8.85;2.80;;;;;;;8.07;61.23;97158.03;1716352;82;21021;-83
2021/11/29 13:40:17;;;;;;;10.95;3.10;;;;;;;8.02;61.55;97170.36;1731232;80;21061;-81
2021/11/29 13:42:47;;;;;;;8.20;2.52;;;;;;;7.96;61.96;97173.23;1755138;79;21036;-80
2021/11/29 13:45:21;;;;;;;8.55;3.22;;;;;;;7.91;61.99;97172.58;1730394;81;21043;-80
2021/11/29 13:47:55;;;;;;;5.92;2.45;;;;;;;7.83;60.18;97175.52;1746440;80;20997;-81
2021/11/29 13:50:27;;;;;;;8.00;3.27;;;;;;;7.79;60.04;97160.20;1751234;79;20954;-81
2021/11/29 13:53:04;;;;;;;9.08;3.83;;;;;;;7.69;60.60;97162.36;1739594;80;21081;-80
2021/11/29 13:55:42;;;;;;;9.35;4.30;;;;;;;7.51;59.36;97167.42;1734169;80;21020;-80
2021/11/29 13:58:16;;;;;;;13.30;3.65;;;;;;;7.50;60.19;97176.53;1721723;82;21049;-81
2021/11/29 14:00:47;;;;;;;14.25;3.75;;;;;;;7.50;61.67;97179.98;1741391;80;21047;-81
2021/11/29 14:03:23;;;;;;;12.70;3.62;;;;;;;7.48;61.93;97182.23;1749754;80;20979;-82
2021/11/29 14:05:58;;;;;;;6.87;3.42;;;;;;;7.40;60.46;97194.64;1745481;80;21033;-81
2021/11/29 14:08:32;;;;;;;13.60;3.62;;;;;;;7.33;60.07;97193.62;1738909;82;21516;-81
2021/11/29 14:11:07;;;;;;;14.05;3.45;;;;;;;7.28;60.37;97199.45;1728739;82;21128;-81
2021/11/29 14:13:45;;;;;;;22.10;4.72;;;;;;;7.18;60.54;97209.76;1750007;81;21000;-82
2021/11/29 14:16:19;;;;;;;13.03;3.92;;;;;;;7.11;61.17;97216.11;1730190;82;21076;-80
2021/11/29 14:18:55;;;;;;;8.23;3.15;;;;;;;7.06;60.96;97210.27;1731013;80;21030;-77
2021/11/29 14:21:42;;;;;;;8.45;2.33;;;;;;;6.97;61.19;97208.45;1732520;80;21056;-80
2021/11/29 14:24:16;;;;;;;7.62;2.42;;;;;;;6.87;59.85;97219.23;1641414;85;21000;-80
2021/11/29 14:27:10;;;;;;;9.40;3.22;;;;;;;6.84;60.02;97209.02;1690080;82;21005;-80
2021/11/29 14:29:47;;;;;;;8.78;3.85;;;;;;;6.80;61.30;97221.20;1736767;79;21059;-79
2021/11/29 14:32:17;;;;;;;12.47;4.08;;;;;;;6.76;62.07;97220.52;1746164;81;21012;-86
2021/11/29 14:34:56;;;;;;;12.80;4.92;;;;;;;6.69;61.84;97228.09;1718165;82;21021;-81
2021/11/29 14:37:27;;;;;;;7.53;3.00;;;;;;;6.64;61.80;97239.50;1740879;80;21029;-80
2021/11/29 14:40:02;;;;;;;12.18;3.08;;;;;;;6.61;61.80;97243.52;1716711;82;21040;-81
2021/11/29 14:42:33;;;;;;;6.85;2.77;;;;;;;6.57;61.93;97250.07;1721576;82;21108;-81
2021/11/29 14:45:11;;;;;;;9.25;3.75;;;;;;;6.52;62.16;97250.69;1751684;80;21007;-81
2021/11/29 14:47:49;;;;;;;14.40;4.28;;;;;;;6.47;61.96;97255.20;1753604;81;21045;-81
2021/11/29 14:50:35;;;;;;;7.80;3.62;;;;;;;6.42;62.57;97257.10;1754508;81;21020;-82
2021/11/29 14:53:11;;;;;;;4.70;2.35;;;;;;;6.36;62.78;97263.33;1743227;81;21076;-84
2021/11/29 14:55:49;;;;;;;13.58;3.58;;;;;;;6.25;60.91;97267.23;1711842;83;21054;-82
2021/11/29 14:58:25;;;;;;;20.75;3.83;;;;;;;6.18;61.56;97264.86;1691825;84;21093;-83
2021/11/29 15:00:56;;;;;;;14.50;3.17;;;;;;;6.14;62.57;97259.42;1717405;83;21002;-83
2021/11/29 15:03:31;;;;;;;10.68;3.72;;;;;;;6.09;62.61;97263.92;1716492;80;20999;-82
2021/11/29 15:06:14;;;;;;;8.05;3.45;;;;;;;5.99;62.01;97267.73;1717466;81;21022;-83
2021/11/29 15:08:43;;;;;;;9.38;3.55;;;;;;;5.92;60.58;97264.94;1688521;83;21006;-82
2021/11/29 15:11:16;;;;;;;6.35;2.70;;;;;;;5.88;61.73;97276.27;1681260;84;21062;-82
2021/11/29 15:13:53;;;;;;;13.72;3.15;;;;;;;5.82;60.45;97277.31;1715069;81;20985;-82
